Time;durP1;ratioP1;P1;durP2;ratioP2;P2;SDS_P1;SDS_P2;PMS_P1;PMS_P2;Temp;Humidity;BMP_temperature;BMP_pressure;BME280_temperature;BME280_humidity;BME280_pressure;Samples;Min_cycle;Max_cycle;Signal;HPM_P1;HPM_P2
2022/05/26 00:00:30;;;;;;;;;;;12.90;99.90;;;;;;5075920;28;20055;-71
2022/05/26 00:02:55;;;;;;;17.85;9.23;;;12.90;99.90;;;;;;5058434;28;20279;-74
2022/05/26 00:05:21;;;;;;;15.02;9.68;;;12.90;99.90;;;;;;5093199;28;20051;-71
2022/05/26 00:07:47;;;;;;;15.52;8.82;;;12.90;99.90;;;;;;5075443;28;20091;-72
2022/05/26 00:10:13;;;;;;;16.45;9.32;;;13.00;99.90;;;;;;5093310;28;20043;-71
2022/05/26 00:12:39;;;;;;;16.92;8.70;;;12.90;99.90;;;;;;5093270;28;20186;-71
2022/05/26 00:15:06;;;;;;;17.17;8.90;;;12.90;99.90;;;;;;5093189;28;20127;-71
2022/05/26 00:17:32;;;;;;;15.35;8.90;;;12.90;99.90;;;;;;5093089;28;20048;-73
2022/05/26 00:23:35;;;;;;;11.55;8.88;;;12.90;99.90;;;;;;5079180;28;19915;-72
2022/05/26 00:26:01;;;;;;;16.27;8.73;;;12.90;99.90;;;;;;5092721;28;20105;-71
2022/05/26 00:28:27;;;;;;;11.23;8.18;;;13.00;99.90;;;;;;5093085;28;20048;-71
2022/05/26 00:30:53;;;;;;;10.73;7.65;;;12.90;99.90;;;;;;5093089;28;20435;-71
2022/05/26 00:33:19;;;;;;;14.00;7.50;;;12.90;99.90;;;;;;5093183;28;20086;-71
2022/05/26 00:35:45;;;;;;;18.23;8.32;;;12.90;99.90;;;;;;5093087;28;20047;-73
2022/05/26 00:38:13;;;;;;;13.98;7.97;;;12.90;99.90;;;;;;5093019;28;20055;-74
2022/05/26 00:40:40;;;;;;;10.15;6.75;;;12.90;99.90;;;;;;5092959;28;20040;-71
2022/05/26 00:43:07;;;;;;;12.15;7.10;;;12.90;99.90;;;;;;5092890;28;20127;-71
2022/05/26 00:45:54;;;;;;;13.10;7.32;;;12.90;99.90;;;;;;5092808;28;20106;-72
2022/05/26 00:48:24;;;;;;;9.88;6.68;;;12.90;99.90;;;;;;5074990;28;20109;-71
2022/05/26 00:50:59;;;;;;;13.07;7.15;;;12.90;99.90;;;;;;5092890;28;20480;-71
2022/05/26 00:53:34;;;;;;;10.05;6.13;;;13.00;99.90;;;;;;5076510;28;20150;-74
2022/05/26 00:56:19;;;;;;;10.70;6.32;;;13.00;99.90;;;;;;5061635;28;20488;-72
2022/05/26 00:58:50;;;;;;;7.18;5.28;;;13.00;99.90;;;;;;5096661;28;20047;-71
2022/05/26 01:01:17;;;;;;;12.15;6.50;;;12.90;99.90;;;;;;5096667;28;20056;-72
2022/05/26 01:03:51;;;;;;;8.93;5.32;;;13.00;99.90;;;;;;5096532;28;20131;-73
2022/05/26 01:06:34;;;;;;;11.05;5.43;;;12.90;99.90;;;;;;5096336;28;20064;-72
2022/05/26 01:09:02;;;;;;;12.25;6.13;;;13.00;99.90;;;;;;5096252;28;20541;-73
2022/05/26 01:11:33;;;;;;;9.60;5.20;;;13.20;99.90;;;;;;5096541;28;20052;-72
2022/05/26 01:14:13;;;;;;;12.18;5.65;;;13.10;99.90;;;;;;5077908;28;20058;-71
2022/05/26 01:16:54;;;;;;;8.38;4.88;;;13.00;99.90;;;;;;5096290;28;20090;-72
2022/05/26 01:19:29;;;;;;;8.50;6.15;;;13.00;99.90;;;;;;5096181;28;20040;-71
2022/05/26 01:22:06;;;;;;;11.27;5.90;;;13.00;99.90;;;;;;5096417;28;20071;-75
2022/05/26 01:24:52;;;;;;;13.50;5.55;;;13.10;99.90;;;;;;5078463;28;20055;-73
2022/05/26 01:27:31;;;;;;;11.65;6.07;;;13.00;99.90;;;;;;5096127;28;20043;-77
2022/05/26 01:30:15;;;;;;;12.48;5.53;;;13.00;99.90;;;;;;5078140;28;20052;-71
2022/05/26 01:32:49;;;;;;;17.27;6.88;;;13.00;99.90;;;;;;5095711;28;20560;-72
2022/05/26 01:35:40;;;;;;;12.98;6.57;;;13.00;99.90;;;;;;5095928;28;20097;-72
2022/05/26 01:38:29;;;;;;;14.75;7.82;;;13.10;99.90;;;;;;5095795;28;20339;-75
2022/05/26 01:41:11;;;;;;;11.48;7.07;;;13.00;99.90;;;;;;5095966;28;20043;-72
2022/05/26 01:44:01;;;;;;;16.75;7.25;;;13.00;99.90;;;;;;5095858;28;20131;-75
2022/05/26 01:46:41;;;;;;;15.00;7.75;;;13.00;99.90;;;;;;5095705;28;20512;-71
2022/05/26 01:49:20;;;;;;;16.65;8.98;;;13.00;99.90;;;;;;5095830;28;20048;-74
2022/05/26 01:52:00;;;;;;;18.98;8.63;;;13.00;99.90;;;;;;5095737;28;20048;-75
2022/05/26 01:54:58;;;;;;;22.45;9.18;;;13.00;99.90;;;;;;5077353;28;20040;-71
2022/05/26 01:57:30;;;;;;;;;;;13.00;99.90;;;;;;5095916;28;20407;-72
2022/05/26 02:00:01;;;;;;;16.17;9.18;;;13.00;99.90;;;;;;5095400;28;20372;-72
2022/05/26 02:02:36;;;;;;;15.00;10.30;;;13.20;99.90;;;;;;5095486;28;20040;-74
2022/05/26 02:05:16;;;;;;;19.90;11.00;;;13.10;99.90;;;;;;5094729;28;20064;-73
2022/05/26 02:07:57;;;;;;;19.55;9.60;;;13.10;99.90;;;;;;5095039;28;20123;-71
2022/05/26 02:10:32;;;;;;;23.05;9.93;;;13.10;99.90;;;;;;5095340;28;20099;-74
2022/05/26 02:13:09;;;;;;;21.95;9.90;;;13.10;99.90;;;;;;5077295;28;20047;-71
2022/05/26 02:15:51;;;;;;;23.38;10.20;;;13.30;99.90;;;;;;5077125;28;20040;-74
2022/05/26 02:18:30;;;;;;;23.00;11.57;;;13.10;99.90;;;;;;5095007;28;20062;-75
2022/05/26 02:21:05;;;;;;;25.45;11.25;;;13.10;99.90;;;;;;5076886;28;20534;-73
2022/05/26 02:23:44;;;;;;;21.40;11.07;;;13.10;99.90;;;;;;5094951;28;20123;-70
2022/05/26 02:26:10;;;;;;;24.48;9.85;;;13.10;99.90;;;;;;5094928;28;20044;-72
2022/05/26 02:31:24;;;;;;;21.98;10.65;;;13.20;99.90;;;;;;5094936;28;19927;-71
2022/05/26 02:33:56;;;;;;;18.98;10.90;;;13.10;99.90;;;;;;5094784;28;20496;-75
2022/05/26 02:36:24;;;;;;;24.25;9.18;;;13.50;99.90;;;;;;5094738;28;20040;-73
2022/05/26 02:38:49;;;;;;;23.30;10.25;;;13.10;99.90;;;;;;5094617;28;20090;-71
2022/05/26 02:41:16;;;;;;;24.38;10.57;;;13.10;99.90;;;;;;5094627;28;20420;-71
2022/05/26 02:43:42;;;;;;;31.65;11.45;;;13.10;99.90;;;;;;5076932;28;20127;-73
2022/05/26 02:46:37;;;;;;;21.85;10.45;;;13.30;99.90;;;;;;5094744;28;20055;-71
2022/05/26 02:49:20;;;;;;;33.55;10.60;;;13.10;99.90;;;;;;5094513;28;20130;-71
2022/05/26 02:52:16;;;;;;;28.17;11.80;;;13.10;99.90;;;;;;5094361;28;20488;-71
2022/05/26 02:55:11;;;;;;;32.53;11.10;;;13.10;99.90;;;;;;4992512;28;20053;-75
2022/05/26 02:57:49;;;;;;;21.67;10.20;;;13.20;99.90;;;;;;4992761;28;20057;-71
2022/05/26 03:00:59;;;;;;;29.95;10.60;;;13.20;99.90;;;;;;4992673;28;20054;-71
2022/05/26 03:03:47;;;;;;;28.73;11.27;;;13.20;99.90;;;;;;4918989;29;20064;-71
2022/05/26 03:06:35;;;;;;;24.92;10.40;;;13.20;99.90;;;;;;4918636;29;20416;-71
2022/05/26 03:09:03;;;;;;;30.60;11.00;;;13.20;99.90;;;;;;4934729;29;20052;-70
2022/05/26 03:11:28;;;;;;;25.92;9.75;;;13.20;99.90;;;;;;4934648;29;20578;-71
2022/05/26 03:13:55;;;;;;;26.95;10.70;;;13.20;99.90;;;;;;4934637;29;20204;-71
2022/05/26 03:16:21;;;;;;;28.98;9.52;;;13.40;99.90;;;;;;4933749;29;20063;-71
2022/05/26 03:18:47;;;;;;;;;;;13.20;99.90;;;;;;4919177;29;20055;-71
2022/05/26 03:21:13;;;;;;;26.45;9.90;;;13.40;99.90;;;;;;4934381;29;19929;-74
2022/05/26 03:23:39;;;;;;;26.55;9.40;;;13.20;99.90;;;;;;4918462;29;20094;-74
2022/05/26 03:26:06;;;;;;;;;;;13.30;99.90;;;;;;4919156;29;20103;-71
2022/05/26 03:28:32;;;;;;;27.33;8.52;;;13.40;99.90;;;;;;4934301;29;19923;-72
2022/05/26 03:30:57;;;;;;;28.00;10.02;;;13.30;99.90;;;;;;4969173;28;20064;-71
2022/05/26 03:33:24;;;;;;;25.65;9.20;;;13.20;99.90;;;;;;5011666;28;20430;-70
2022/05/26 03:41:25;;;;;;;19.88;9.57;;;13.20;99.90;;;;;;5093643;28;20591;-75
2022/05/26 03:43:58;;;;;;;29.77;9.07;;;13.20;99.90;;;;;;5093486;28;20104;-72
2022/05/26 03:46:25;;;;;;;28.17;9.63;;;13.20;99.90;;;;;;5093368;28;20527;-71
2022/05/26 03:48:51;;;;;;;22.95;8.52;;;13.20;99.90;;;;;;5093634;28;20093;-71
2022/05/26 03:51:17;;;;;;;32.13;9.02;;;13.20;99.90;;;;;;5093703;28;20051;-71
2022/05/26 03:53:42;;;;;;;21.23;7.90;;;13.20;99.90;;;;;;5093407;28;20043;-71
2022/05/26 03:56:08;;;;;;;24.58;8.00;;;13.20;99.90;;;;;;5093398;28;20048;-75
2022/05/26 03:58:35;;;;;;;24.70;8.45;;;13.80;99.90;;;;;;5075670;28;20044;-71
2022/05/26 04:01:03;;;;;;;18.17;7.28;;;13.10;99.90;;;;;;5075420;28;20043;-71
2022/05/26 04:03:28;;;;;;;24.13;8.65;;;13.10;99.90;;;;;;5093599;28;20073;-74
2022/05/26 04:05:55;;;;;;;20.67;7.43;;;13.10;99.90;;;;;;5093224;28;20169;-71
2022/05/26 04:08:21;;;;;;;19.67;7.00;;;13.10;99.90;;;;;;5093248;28;20059;-71
2022/05/26 04:10:47;;;;;;;20.35;6.68;;;13.10;99.90;;;;;;5075439;28;20048;-72
2022/05/26 04:13:13;;;;;;;19.80;8.52;;;13.10;99.90;;;;;;5093193;28;20442;-71
2022/05/26 04:15:39;;;;;;;19.95;8.07;;;13.10;99.90;;;;;;5093033;28;20048;-70
2022/05/26 04:18:05;;;;;;;22.80;7.78;;;13.20;99.90;;;;;;5093384;28;20055;-71
2022/05/26 04:20:30;;;;;;;27.45;8.18;;;13.10;99.90;;;;;;5075441;28;20084;-71
2022/05/26 04:22:56;;;;;;;22.08;7.03;;;13.10;99.90;;;;;;5093196;28;20086;-71
2022/05/26 04:25:22;;;;;;;28.73;8.73;;;13.10;99.90;;;;;;5093260;28;20400;-71
2022/05/26 04:27:48;;;;;;;;;;;13.10;99.90;;;;;;5095804;28;20052;-71
2022/05/26 04:30:15;;;;;;;20.83;7.05;;;13.10;99.90;;;;;;5079080;28;19946;-72
2022/05/26 04:32:41;;;;;;;21.08;7.22;;;13.10;99.90;;;;;;5096925;28;20082;-73
2022/05/26 04:35:09;;;;;;;17.33;7.72;;;13.10;99.90;;;;;;5097219;28;20047;-71
2022/05/26 04:37:35;;;;;;;19.90;6.93;;;13.10;99.90;;;;;;5097149;28;20048;-71
2022/05/26 04:40:02;;;;;;;15.60;5.40;;;13.20;99.90;;;;;;5079270;28;20511;-71
2022/05/26 04:42:29;;;;;;;13.85;5.20;;;13.10;99.90;;;;;;5079175;28;20165;-70
2022/05/26 04:44:55;;;;;;;18.35;5.63;;;13.10;99.90;;;;;;5078859;28;20036;-71
2022/05/26 04:47:21;;;;;;;16.05;4.57;;;13.10;99.90;;;;;;5096770;28;20073;-71
2022/05/26 04:49:47;;;;;;;13.93;4.35;;;13.10;99.90;;;;;;5097004;28;20055;-71
2022/05/26 04:52:17;;;;;;;12.88;4.55;;;13.30;99.90;;;;;;5096969;28;20481;-71
2022/05/26 04:54:44;;;;;;;10.88;3.97;;;13.20;99.90;;;;;;5078799;28;20097;-74
2022/05/26 04:57:11;;;;;;;11.98;3.80;;;13.10;99.90;;;;;;5078804;28;20090;-71
2022/05/26 04:59:38;;;;;;;16.13;4.07;;;13.20;99.90;;;;;;5078170;28;20233;-71
2022/05/26 05:02:04;;;;;;;17.33;4.13;;;13.20;99.90;;;;;;5096483;28;20044;-75
2022/05/26 05:04:30;;;;;;;;;;;13.20;99.90;;;;;;5078737;28;20098;-75
2022/05/26 05:06:56;;;;;;;15.80;3.38;;;13.20;99.90;;;;;;5096302;28;19920;-74
2022/05/26 05:09:22;;;;;;;20.35;3.47;;;13.20;99.90;;;;;;5096445;28;20044;-74
2022/05/26 05:11:48;;;;;;;9.57;2.53;;;13.30;99.90;;;;;;5078617;28;20083;-70
2022/05/26 05:14:14;;;;;;;6.57;2.25;;;13.30;99.90;;;;;;5078526;28;20048;-72
2022/05/26 05:16:42;;;;;;;11.77;3.75;;;13.30;99.90;;;;;;5078384;28;20043;-71
2022/05/26 05:19:13;;;;;;;11.45;3.53;;;13.30;99.90;;;;;;5096387;28;20609;-71
2022/05/26 05:22:00;;;;;;;9.25;2.70;;;13.20;99.90;;;;;;5096373;28;20411;-73
2022/05/26 05:24:28;;;;;;;7.47;2.35;;;13.30;99.90;;;;;;5078292;28;20097;-71
2022/05/26 05:27:03;;;;;;;7.50;2.65;;;13.30;99.90;;;;;;5096197;28;20040;-74
2022/05/26 05:29:33;;;;;;;7.07;2.47;;;13.30;99.90;;;;;;5096088;28;20515;-71
2022/05/26 05:32:10;;;;;;;7.60;1.90;;;13.50;99.90;;;;;;5096143;28;20047;-72
2022/05/26 05:34:41;;;;;;;8.63;2.25;;;13.40;99.90;;;;;;5096039;28;20162;-72
2022/05/26 05:37:07;;;;;;;12.38;2.22;;;13.40;99.90;;;;;;5095872;28;20489;-71
2022/05/26 05:39:33;;;;;;;9.52;3.17;;;13.40;99.90;;;;;;5094887;28;20065;-71
2022/05/26 05:41:59;;;;;;;10.27;1.90;;;13.50;99.90;;;;;;5095847;28;20130;-74
2022/05/26 05:44:26;;;;;;;11.07;2.95;;;13.50;99.90;;;;;;5095969;28;20413;-71
2022/05/26 05:46:57;;;;;;;9.73;2.20;;;13.60;99.90;;;;;;5095839;28;20496;-74
2022/05/26 05:49:25;;;;;;;9.05;2.15;;;13.60;99.90;;;;;;5095749;28;20067;-71
2022/05/26 05:51:52;;;;;;;6.50;2.22;;;13.60;99.90;;;;;;5077902;28;20058;-71
2022/05/26 05:54:18;;;;;;;6.25;1.73;;;13.60;99.90;;;;;;5095385;28;20048;-71
2022/05/26 05:56:45;;;;;;;;;;;13.70;99.90;;;;;;5095889;28;20040;-71
2022/05/26 05:59:11;;;;;;;7.32;1.50;;;13.70;99.90;;;;;;5077642;28;20018;-71
2022/05/26 06:01:36;;;;;;;6.95;1.80;;;13.80;99.90;;;;;;5095602;28;20040;-71
2022/05/26 06:04:02;;;;;;;5.90;1.48;;;13.80;99.90;;;;;;5095424;28;20093;-71
2022/05/26 06:06:35;;;;;;;7.70;2.42;;;13.80;99.90;;;;;;5095211;28;20094;-71
2022/05/26 06:09:01;;;;;;;5.47;1.15;;;13.80;99.90;;;;;;5095102;28;20047;-74
2022/05/26 06:11:27;;;;;;;4.78;1.45;;;13.80;99.90;;;;;;5077042;28;20477;-73
2022/05/26 06:13:54;;;;;;;3.75;1.27;;;13.80;99.90;;;;;;5077025;28;20056;-74
2022/05/26 06:16:19;;;;;;;5.20;1.23;;;13.80;99.90;;;;;;5095205;28;20044;-71
2022/05/26 06:18:46;;;;;;;4.97;1.63;;;13.90;99.90;;;;;;5095228;28;20511;-72
2022/05/26 06:21:12;;;;;;;6.40;1.30;;;14.50;99.90;;;;;;5093814;28;20055;-72
2022/05/26 06:23:37;;;;;;;4.60;1.25;;;13.90;99.90;;;;;;5094603;28;20044;-75
2022/05/26 06:26:03;;;;;;;6.50;1.23;;;14.00;99.90;;;;;;5094679;28;20036;-75
2022/05/26 06:31:13;;;;;;;5.22;1.00;;;14.00;99.90;;;;;;5094789;28;20565;-76
2022/05/26 06:39:07;;;;;;;5.07;1.00;;;14.10;99.90;;;;;;5076856;28;20059;-74
2022/05/26 06:44:18;;;;;;;4.43;1.58;;;14.20;99.90;;;;;;5094441;28;20527;-72
2022/05/26 06:46:44;;;;;;;3.85;1.08;;;14.20;99.90;;;;;;5094424;28;20044;-71
2022/05/26 06:49:10;;;;;;;3.58;0.98;;;14.30;99.90;;;;;;5076525;28;20086;-71
2022/05/26 06:51:39;;;;;;;4.93;0.90;;;14.30;99.90;;;;;;5094411;28;20130;-70
2022/05/26 06:54:07;;;;;;;3.28;1.10;;;14.40;99.90;;;;;;5094128;28;20400;-70
2022/05/26 06:56:33;;;;;;;5.75;0.95;;;14.40;99.90;;;;;;5076318;28;20040;-74
2022/05/26 06:58:59;;;;;;;4.75;0.80;;;14.50;99.90;;;;;;5076269;28;20097;-75
2022/05/26 07:01:26;;;;;;;3.60;0.80;;;14.50;99.90;;;;;;5059807;28;20385;-73
2022/05/26 07:03:51;;;;;;;3.10;0.90;;;14.50;99.90;;;;;;5094319;28;20439;-75
2022/05/26 07:06:20;;;;;;;5.45;0.90;;;14.60;99.90;;;;;;5075889;28;20052;-70
2022/05/26 07:08:47;;;;;;;4.25;0.80;;;14.70;99.90;;;;;;5094183;28;20048;-74
2022/05/26 07:11:13;;;;;;;6.38;2.42;;;14.80;99.90;;;;;;5076045;28;20040;-73
2022/05/26 07:13:39;;;;;;;7.85;0.85;;;14.80;99.90;;;;;;5094079;28;20131;-72
2022/05/26 07:16:07;;;;;;;2.20;0.82;;;14.80;99.90;;;;;;5093961;28;20122;-71
2022/05/26 07:18:33;;;;;;;3.50;0.90;;;14.90;99.90;;;;;;5093835;28;20047;-70
2022/05/26 07:21:01;;;;;;;4.53;1.05;;;15.00;99.90;;;;;;5094109;28;20090;-70
2022/05/26 07:23:27;;;;;;;6.28;0.70;;;15.10;99.90;;;;;;5093934;28;20074;-71
2022/05/26 07:25:52;;;;;;;5.25;0.80;;;15.20;99.90;;;;;;5093937;28;20366;-70
2022/05/26 07:28:18;;;;;;;6.30;0.88;;;15.20;99.90;;;;;;5093866;28;20132;-71
2022/05/26 07:30:43;;;;;;;3.70;0.77;;;15.30;99.90;;;;;;5093832;28;20089;-72
2022/05/26 07:33:09;;;;;;;2.22;0.60;;;15.30;99.90;;;;;;5093641;28;20051;-71
2022/05/26 07:35:35;;;;;;;3.33;0.60;;;15.40;99.90;;;;;;5093799;28;20131;-75
2022/05/26 07:43:34;;;;;;;6.50;0.80;;;15.30;99.90;;;;;;5093433;28;20117;-73
2022/05/26 07:46:00;;;;;;;1.60;0.50;;;15.30;99.90;;;;;;5093804;28;20078;-70
2022/05/26 07:48:25;;;;;;;2.75;0.60;;;15.30;99.90;;;;;;5093679;28;20104;-72
2022/05/26 07:50:51;;;;;;;2.88;0.60;;;15.30;99.90;;;;;;5093590;28;20148;-71
2022/05/26 07:53:17;;;;;;;2.72;0.45;;;15.20;99.90;;;;;;5093464;28;20511;-71
2022/05/26 07:55:42;;;;;;;3.28;0.70;;;15.10;99.90;;;;;;5092671;28;20040;-71
2022/05/26 07:58:14;;;;;;;2.95;0.85;;;15.00;99.90;;;;;;5093259;28;20123;-72
2022/05/26 08:00:42;;;;;;;5.22;1.20;;;15.00;99.90;;;;;;5074498;28;20048;-70
2022/05/26 08:03:08;;;;;;;4.95;0.77;;;15.00;99.90;;;;;;5092864;28;20044;-73
2022/05/26 08:05:36;;;;;;;3.38;0.63;;;15.10;99.90;;;;;;5093422;28;20431;-70
2022/05/26 08:08:02;;;;;;;3.08;0.70;;;15.10;99.90;;;;;;5092408;28;20140;-73
2022/05/26 08:10:27;;;;;;;5.25;1.10;;;15.10;99.90;;;;;;5090296;28;20081;-70
2022/05/26 08:12:53;;;;;;;3.10;1.10;;;15.20;99.90;;;;;;5072585;28;20033;-71
2022/05/26 08:15:19;;;;;;;6.35;1.20;;;15.20;99.90;;;;;;5073775;28;20129;-71
2022/05/26 08:17:45;;;;;;;2.95;1.10;;;15.20;99.90;;;;;;5092510;28;20075;-70
2022/05/26 08:20:11;;;;;;;5.25;1.60;;;15.20;99.90;;;;;;5075542;28;20131;-71
2022/05/26 08:22:36;;;;;;;4.95;1.20;;;15.30;99.90;;;;;;5109186;28;20055;-74
2022/05/26 08:25:03;;;;;;;3.25;0.70;;;16.20;99.90;;;;;;5092965;28;20412;-70
2022/05/26 08:27:29;;;;;;;3.88;1.08;;;15.40;99.90;;;;;;5093126;28;20040;-73
2022/05/26 08:29:56;;;;;;;4.78;0.70;;;15.40;99.90;;;;;;5093036;28;20395;-70
2022/05/26 08:32:23;;;;;;;2.92;0.82;;;15.50;99.90;;;;;;5093232;28;20123;-70
2022/05/26 08:34:49;;;;;;;3.35;0.52;;;15.50;99.90;;;;;;5093116;28;20087;-74
2022/05/26 08:37:17;;;;;;;2.30;0.80;;;15.60;99.90;;;;;;5093194;28;20055;-74
2022/05/26 08:39:43;;;;;;;2.45;1.27;;;15.50;99.90;;;;;;5092940;28;20483;-71
2022/05/26 08:42:23;;;;;;;1.95;0.65;;;15.50;99.90;;;;;;5092992;28;20081;-70
2022/05/26 08:44:50;;;;;;;3.42;0.60;;;15.50;99.90;;;;;;5093088;28;20051;-71
2022/05/26 08:47:21;;;;;;;2.63;0.50;;;15.60;99.90;;;;;;5093097;28;20075;-71
2022/05/26 08:50:10;;;;;;;3.75;0.68;;;15.70;99.90;;;;;;5075176;28;20127;-75
2022/05/26 08:52:52;;;;;;;3.65;0.63;;;15.70;99.90;;;;;;5092864;28;20093;-71
2022/05/26 08:55:43;;;;;;;2.72;0.50;;;15.70;99.90;;;;;;5108851;28;20059;-71
2022/05/26 08:58:17;;;;;;;3.88;1.20;;;15.70;99.90;;;;;;5081483;28;20056;-71
2022/05/26 09:00:44;;;;;;;7.35;0.82;;;15.70;99.90;;;;;;5092885;28;20126;-70
2022/05/26 09:03:27;;;;;;;3.22;0.68;;;15.70;99.90;;;;;;5092880;28;20040;-70
2022/05/26 09:06:01;;;;;;;3.75;0.60;;;15.70;99.90;;;;;;5092891;28;20052;-71
2022/05/26 09:14:04;;;;;;;7.90;0.70;;;15.80;99.90;;;;;;5075599;28;20569;-70
2022/05/26 09:16:40;;;;;;;3.67;0.80;;;15.90;99.90;;;;;;5078421;28;20132;-71
2022/05/26 09:19:11;;;;;;;1.60;0.60;;;16.00;99.90;;;;;;5096402;28;20057;-71
2022/05/26 09:21:37;;;;;;;3.60;0.57;;;16.10;99.90;;;;;;5096179;28;20484;-70
2022/05/26 09:24:19;;;;;;;2.75;0.77;;;16.10;99.90;;;;;;5096255;28;20083;-70
2022/05/26 09:26:54;;;;;;;3.42;0.60;;;16.10;99.90;;;;;;5096036;28;20048;-71
2022/05/26 09:29:25;;;;;;;2.78;0.50;;;16.20;99.90;;;;;;5096250;28;20040;-71
2022/05/26 09:31:51;;;;;;;1.25;0.50;;;16.30;99.90;;;;;;5095930;28;20104;-73
2022/05/26 09:34:17;;;;;;;;;;;16.50;99.90;;;;;;5096343;28;20104;-71
2022/05/26 09:36:48;;;;;;;2.58;0.50;;;16.60;99.90;;;;;;5095960;28;20010;-70
2022/05/26 09:39:19;;;;;;;5.40;0.75;;;16.50;99.90;;;;;;5095844;28;20050;-75
2022/05/26 09:41:49;;;;;;;2.80;0.70;;;16.40;99.90;;;;;;5096079;28;20173;-71
2022/05/26 09:44:22;;;;;;;1.15;0.45;;;16.60;99.90;;;;;;5095815;28;20127;-71
2022/05/26 09:46:51;;;;;;;1.88;0.60;;;16.30;99.90;;;;;;5095910;28;20411;-71
2022/05/26 09:49:20;;;;;;;3.05;0.70;;;16.20;99.90;;;;;;5095695;28;20048;-74
2022/05/26 09:51:46;;;;;;;3.45;0.73;;;16.20;99.90;;;;;;5095557;28;20521;-71
2022/05/26 09:54:30;;;;;;;3.28;0.70;;;16.10;99.90;;;;;;5095739;28;20044;-71
2022/05/26 09:56:56;;;;;;;4.40;0.60;;;16.10;99.90;;;;;;5077729;28;20070;-71
2022/05/26 09:59:29;;;;;;;3.03;0.60;;;16.20;99.90;;;;;;5095550;28;20480;-70
2022/05/26 10:02:11;;;;;;;2.30;0.68;;;16.30;99.90;;;;;;5095514;28;20083;-71
2022/05/26 10:04:58;;;;;;;2.90;0.60;;;16.40;99.90;;;;;;5095695;28;20444;-72
2022/05/26 10:07:39;;;;;;;;;;;16.40;99.90;;;;;;5096120;28;20113;-71
2022/05/26 10:10:04;;;;;;;1.63;0.50;;;16.40;99.90;;;;;;5095297;28;19920;-71
2022/05/26 10:12:55;;;;;;;1.52;0.52;;;16.40;99.90;;;;;;5095256;28;20050;-73
2022/05/26 10:15:36;;;;;;;3.50;0.50;;;16.40;99.90;;;;;;5012881;28;20553;-71
2022/05/26 10:18:10;;;;;;;3.08;0.60;;;16.50;99.90;;;;;;5013021;28;20534;-71
2022/05/26 10:20:49;;;;;;;0.95;0.40;;;16.50;99.90;;;;;;4996220;28;20124;-71
2022/05/26 10:23:30;;;;;;;3.15;1.42;;;16.60;99.90;;;;;;4996355;28;20136;-70
2022/05/26 10:26:07;;;;;;;3.65;0.50;;;16.60;99.90;;;;;;5012546;28;20510;-74
2022/05/26 10:29:14;;;;;;;3.08;0.70;;;16.50;99.90;;;;;;5012876;28;20427;-71
2022/05/26 10:32:08;;;;;;;1.63;0.80;;;16.40;99.90;;;;;;4935292;29;20102;-70
2022/05/26 10:34:49;;;;;;;2.30;0.55;;;16.30;99.90;;;;;;4935088;29;20059;-72
2022/05/26 10:37:39;;;;;;;4.57;0.50;;;16.20;99.90;;;;;;4935422;29;20083;-71
2022/05/26 10:40:05;;;;;;;2.13;0.70;;;16.20;99.90;;;;;;4919418;29;20052;-71
2022/05/26 10:42:35;;;;;;;1.13;0.22;;;16.20;99.90;;;;;;4935121;29;20062;-72
2022/05/26 10:45:17;;;;;;;1.38;0.75;;;16.30;99.90;;;;;;4935158;29;20567;-71
2022/05/26 10:48:27;;;;;;;2.10;0.60;;;16.30;99.90;;;;;;4919372;29;20099;-71
2022/05/26 10:50:58;;;;;;;1.85;0.50;;;16.50;99.90;;;;;;4920527;29;20077;-70
2022/05/26 10:53:31;;;;;;;1.70;0.57;;;16.60;99.90;;;;;;5006227;28;20108;-74
2022/05/26 10:56:09;;;;;;;1.10;0.47;;;16.70;99.90;;;;;;5012171;28;20050;-71
2022/05/26 10:58:42;;;;;;;4.38;1.02;;;16.80;99.90;;;;;;5012394;28;20053;-70
2022/05/26 11:01:31;;;;;;;1.98;0.60;;;16.70;99.90;;;;;;5012177;28;20065;-70
2022/05/26 11:04:12;;;;;;;1.95;0.50;;;16.70;99.90;;;;;;5012170;28;20053;-74
2022/05/26 11:06:40;;;;;;;2.95;0.50;;;16.80;99.90;;;;;;5016866;28;20139;-71
2022/05/26 11:09:42;;;;;;;4.28;0.77;;;16.90;99.90;;;;;;5094063;28;20511;-73
2022/05/26 11:12:18;;;;;;;4.43;0.50;;;16.80;99.90;;;;;;5094303;28;20040;-70
2022/05/26 11:18:03;;;;;;;2.13;0.70;;;16.80;99.90;;;;;;5094046;28;20052;-73
2022/05/26 11:20:35;;;;;;;3.08;0.60;;;16.90;99.90;;;;;;5094227;28;20047;-71
2022/05/26 11:23:03;;;;;;;3.92;0.60;;;17.00;99.90;;;;;;5094021;28;20186;-73
2022/05/26 11:25:32;;;;;;;5.13;0.73;;;17.10;99.90;;;;;;5093851;28;20048;-72
2022/05/26 11:28:05;;;;;;;7.43;0.88;;;17.10;99.90;;;;;;5093917;28;20135;-71
2022/05/26 11:36:29;;;;;;;4.70;0.70;;;17.20;99.90;;;;;;5075052;28;20060;-73
2022/05/26 11:38:55;;;;;;;2.88;1.05;;;17.30;99.90;;;;;;5093435;28;20405;-73
2022/05/26 11:41:58;;;;;;;1.60;0.60;;;17.30;99.90;;;;;;5093822;28;20499;-73
2022/05/26 11:44:44;;;;;;;5.85;0.88;;;17.30;99.90;;;;;;5011490;28;20092;-70
2022/05/26 11:47:31;;;;;;;3.65;0.75;;;17.20;99.90;;;;;;5011496;28;20064;-74
2022/05/26 11:49:56;;;;;;;7.53;0.83;;;17.20;99.90;;;;;;4994825;28;20481;-71
2022/05/26 11:52:34;;;;;;;1.92;0.70;;;17.10;99.90;;;;;;5011427;28;20289;-71
2022/05/26 11:55:06;;;;;;;3.25;0.80;;;17.00;99.90;;;;;;5011282;28;20085;-71
2022/05/26 11:57:48;;;;;;;4.47;1.00;;;17.00;99.90;;;;;;5011328;28;20052;-72
2022/05/26 12:00:35;;;;;;;6.03;1.58;;;17.00;99.90;;;;;;5011393;28;20080;-71
2022/05/26 12:03:22;;;;;;;1.98;0.80;;;17.00;99.90;;;;;;5011222;28;20042;-70
2022/05/26 12:06:10;;;;;;;4.35;1.20;;;16.90;99.90;;;;;;4994864;28;20493;-71
2022/05/26 12:08:59;;;;;;;3.00;1.00;;;16.80;99.90;;;;;;5011141;28;20588;-71
2022/05/26 12:11:52;;;;;;;6.05;1.10;;;16.70;99.90;;;;;;5011150;28;20522;-71
2022/05/26 12:14:23;;;;;;;5.45;1.13;;;16.60;99.90;;;;;;5011152;28;20455;-71
2022/05/26 12:16:49;;;;;;;6.05;1.33;;;16.60;99.90;;;;;;5011133;28;20144;-71
2022/05/26 12:19:40;;;;;;;2.70;1.23;;;16.70;99.90;;;;;;5064863;28;20131;-75
2022/05/26 12:22:36;;;;;;;3.85;1.38;;;16.60;99.90;;;;;;5093278;28;20112;-70
2022/05/26 12:25:25;;;;;;;2.40;1.40;;;16.60;99.90;;;;;;5075049;28;20392;-71
2022/05/26 12:28:14;;;;;;;3.42;1.35;;;16.70;99.90;;;;;;5093294;28;20044;-74
2022/05/26 12:30:46;;;;;;;4.75;1.67;;;16.70;99.90;;;;;;5093246;28;20055;-73
2022/05/26 12:33:21;;;;;;;2.20;1.15;;;16.80;99.90;;;;;;5108631;28;20092;-72
2022/05/26 12:36:19;;;;;;;3.45;1.83;;;16.80;99.90;;;;;;5093257;28;20048;-72
2022/05/26 12:39:21;;;;;;;5.65;1.50;;;16.90;99.90;;;;;;5075292;28;20466;-71
2022/05/26 12:41:56;;;;;;;3.00;1.35;;;17.00;99.90;;;;;;5092940;28;20044;-74
2022/05/26 12:44:59;;;;;;;3.38;1.35;;;17.10;99.90;;;;;;5093117;28;20047;-75
2022/05/26 12:47:34;;;;;;;3.58;1.13;;;17.10;99.90;;;;;;5075221;28;20129;-74
2022/05/26 12:50:09;;;;;;;5.22;1.52;;;17.00;99.90;;;;;;5096953;28;20054;-71
2022/05/26 12:52:43;;;;;;;2.72;1.30;;;16.90;99.90;;;;;;5079207;28;20044;-72
2022/05/26 12:55:34;;;;;;;2.58;1.17;;;17.00;99.90;;;;;;5097020;28;20089;-71
2022/05/26 12:58:35;;;;;;;5.97;1.23;;;17.20;99.90;;;;;;5014497;28;20061;-71
2022/05/26 13:01:03;;;;;;;4.78;1.38;;;17.20;99.90;;;;;;5014486;28;20046;-71
2022/05/26 13:03:36;;;;;;;4.30;0.90;;;17.20;99.90;;;;;;4997968;28;20120;-72
2022/05/26 13:06:11;;;;;;;5.03;1.10;;;17.10;99.90;;;;;;5014289;28;20120;-71
2022/05/26 13:09:21;;;;;;;2.95;1.80;;;17.00;99.90;;;;;;5014261;28;20057;-72
2022/05/26 13:11:56;;;;;;;1.98;0.98;;;16.90;99.90;;;;;;5010488;28;20054;-71
2022/05/26 13:14:44;;;;;;;2.90;1.20;;;16.90;99.90;;;;;;5014314;28;20085;-71
2022/05/26 13:17:10;;;;;;;8.30;1.35;;;17.00;99.90;;;;;;5014093;28;20052;-70
2022/05/26 13:19:51;;;;;;;3.28;1.13;;;17.00;99.90;;;;;;5014185;28;20124;-70
2022/05/26 13:22:32;;;;;;;2.42;1.23;;;17.00;99.90;;;;;;4997951;28;20105;-71
2022/05/26 13:24:59;;;;;;;3.42;0.88;;;17.00;99.90;;;;;;4982055;28;20199;-71
2022/05/26 13:27:28;;;;;;;3.33;0.80;;;17.00;99.90;;;;;;5014039;28;20128;-71
2022/05/26 13:33:07;;;;;;;4.90;0.93;;;17.00;99.90;;;;;;4997892;28;20053;-71
2022/05/26 13:35:26;;;;;;;3.15;1.58;;;16.90;99.90;;;;;;5071043;28;20094;-72
2022/05/26 13:37:51;;;;;;;4.80;1.77;;;16.80;99.90;;;;;;5096082;28;20083;-71
2022/05/26 13:40:35;;;;;;;5.38;0.90;;;16.80;99.90;;;;;;5077733;28;20086;-71
2022/05/26 13:43:01;;;;;;;2.92;1.20;;;16.80;99.90;;;;;;5096023;28;20086;-75
2022/05/26 13:45:31;;;;;;;2.50;1.00;;;16.80;99.90;;;;;;5095988;28;20071;-72
2022/05/26 13:48:29;;;;;;;10.45;2.85;;;16.80;99.90;;;;;;5061646;28;20044;-71
2022/05/26 13:51:18;;;;;;;5.50;1.70;;;16.80;99.90;;;;;;5095773;28;20123;-71
2022/05/26 13:53:54;;;;;;;4.90;1.42;;;16.80;99.90;;;;;;5095778;28;20041;-71
2022/05/26 13:56:32;;;;;;;4.13;0.98;;;16.80;99.90;;;;;;5095673;28;20093;-71
2022/05/26 13:59:04;;;;;;;2.53;1.58;;;16.90;99.90;;;;;;5095594;28;20088;-72
2022/05/26 14:01:30;;;;;;;5.95;1.50;;;16.90;99.90;;;;;;5094925;28;20040;-73